sensor_id;sensor_type;location;lat;lon;timestamp;P1;durP1;ratioP1;P2;durP2;ratioP2
59876;SDS011;45749;51.140;17.184;2023-08-24T00:00:15;4.68;;;3.67;;
59876;SDS011;45749;51.140;17.184;2023-08-24T00:02:41;4.72;;;3.47;;
59876;SDS011;45749;51.140;17.184;2023-08-24T00:05:06;5.37;;;3.27;;
59876;SDS011;45749;51.140;17.184;2023-08-24T00:07:31;5.55;;;3.60;;
59876;SDS011;45749;51.140;17.184;2023-08-24T00:09:57;6.47;;;3.67;;
59876;SDS011;45749;51.140;17.184;2023-08-24T00:12:23;6.85;;;3.50;;
59876;SDS011;45749;51.140;17.184;2023-08-24T00:14:48;6.70;;;4.00;;
59876;SDS011;45749;51.140;17.184;2023-08-24T00:17:13;7.53;;;4.57;;
59876;SDS011;45749;51.140;17.184;2023-08-24T00:19:39;6.55;;;4.00;;
59876;SDS011;45749;51.140;17.184;2023-08-24T00:22:05;4.88;;;4.03;;
59876;SDS011;45749;51.140;17.184;2023-08-24T00:24:30;7.17;;;4.20;;
59876;SDS011;45749;51.140;17.184;2023-08-24T00:26:55;5.63;;;4.43;;
59876;SDS011;45749;51.140;17.184;2023-08-24T00:29:21;5.85;;;3.97;;
59876;SDS011;45749;51.140;17.184;2023-08-24T00:31:47;5.25;;;4.50;;
59876;SDS011;45749;51.140;17.184;2023-08-24T00:34:12;9.57;;;5.82;;
59876;SDS011;45749;51.140;17.184;2023-08-24T00:36:37;8.53;;;4.67;;
59876;SDS011;45749;51.140;17.184;2023-08-24T00:39:02;11.50;;;4.35;;
59876;SDS011;45749;51.140;17.184;2023-08-24T00:41:28;6.35;;;4.20;;
59876;SDS011;45749;51.140;17.184;2023-08-24T00:43:53;5.70;;;4.47;;
59876;SDS011;45749;51.140;17.184;2023-08-24T00:46:19;6.63;;;4.37;;
59876;SDS011;45749;51.140;17.184;2023-08-24T00:48:44;6.95;;;4.20;;
59876;SDS011;45749;51.140;17.184;2023-08-24T00:51:10;7.00;;;4.30;;
59876;SDS011;45749;51.140;17.184;2023-08-24T00:53:35;6.93;;;5.00;;
59876;SDS011;45749;51.140;17.184;2023-08-24T00:56:02;7.38;;;4.18;;
59876;SDS011;45749;51.140;17.184;2023-08-24T00:58:29;7.70;;;5.38;;
59876;SDS011;45749;51.140;17.184;2023-08-24T01:00:56;6.88;;;4.45;;
59876;SDS011;45749;51.140;17.184;2023-08-24T01:03:22;8.23;;;4.72;;
59876;SDS011;45749;51.140;17.184;2023-08-24T01:05:48;12.68;;;5.97;;
59876;SDS011;45749;51.140;17.184;2023-08-24T01:08:14;7.45;;;5.47;;
59876;SDS011;45749;51.140;17.184;2023-08-24T01:10:45;8.60;;;6.20;;
59876;SDS011;45749;51.140;17.184;2023-08-24T01:16:16;9.85;;;5.90;;
59876;SDS011;45749;51.140;17.184;2023-08-24T01:18:44;9.75;;;6.13;;
59876;SDS011;45749;51.140;17.184;2023-08-24T01:21:10;9.23;;;5.35;;
59876;SDS011;45749;51.140;17.184;2023-08-24T01:23:41;8.65;;;5.72;;
59876;SDS011;45749;51.140;17.184;2023-08-24T01:26:14;8.27;;;5.70;;
59876;SDS011;45749;51.140;17.184;2023-08-24T01:28:43;9.17;;;5.47;;
59876;SDS011;45749;51.140;17.184;2023-08-24T01:31:09;9.60;;;6.10;;
59876;SDS011;45749;51.140;17.184;2023-08-24T01:33:35;11.13;;;5.97;;
59876;SDS011;45749;51.140;17.184;2023-08-24T01:36:00;10.77;;;5.93;;
59876;SDS011;45749;51.140;17.184;2023-08-24T01:38:25;8.55;;;5.50;;
59876;SDS011;45749;51.140;17.184;2023-08-24T01:41:04;6.85;;;4.60;;
59876;SDS011;45749;51.140;17.184;2023-08-24T01:43:31;7.85;;;5.30;;
59876;SDS011;45749;51.140;17.184;2023-08-24T01:46:00;9.57;;;5.50;;
59876;SDS011;45749;51.140;17.184;2023-08-24T01:48:29;11.52;;;4.97;;
59876;SDS011;45749;51.140;17.184;2023-08-24T01:50:55;9.52;;;5.78;;
59876;SDS011;45749;51.140;17.184;2023-08-24T01:53:21;11.57;;;5.68;;
59876;SDS011;45749;51.140;17.184;2023-08-24T01:55:47;9.10;;;5.55;;
59876;SDS011;45749;51.140;17.184;2023-08-24T01:58:12;9.32;;;5.72;;
59876;SDS011;45749;51.140;17.184;2023-08-24T02:00:37;9.73;;;5.72;;
59876;SDS011;45749;51.140;17.184;2023-08-24T02:03:03;8.93;;;4.90;;
59876;SDS011;45749;51.140;17.184;2023-08-24T02:05:28;9.60;;;5.75;;
59876;SDS011;45749;51.140;17.184;2023-08-24T02:07:54;8.25;;;5.53;;
59876;SDS011;45749;51.140;17.184;2023-08-24T02:10:19;7.22;;;5.22;;
59876;SDS011;45749;51.140;17.184;2023-08-24T02:12:45;9.70;;;6.70;;
59876;SDS011;45749;51.140;17.184;2023-08-24T02:15:10;8.63;;;5.35;;
59876;SDS011;45749;51.140;17.184;2023-08-24T02:17:36;8.20;;;5.20;;
59876;SDS011;45749;51.140;17.184;2023-08-24T02:20:01;9.88;;;5.75;;
59876;SDS011;45749;51.140;17.184;2023-08-24T02:22:28;8.68;;;4.93;;
59876;SDS011;45749;51.140;17.184;2023-08-24T02:24:54;8.40;;;5.80;;
59876;SDS011;45749;51.140;17.184;2023-08-24T02:27:19;10.38;;;5.35;;
59876;SDS011;45749;51.140;17.184;2023-08-24T02:29:45;7.83;;;4.90;;
59876;SDS011;45749;51.140;17.184;2023-08-24T02:32:10;9.95;;;4.47;;
59876;SDS011;45749;51.140;17.184;2023-08-24T02:34:35;7.05;;;4.13;;
59876;SDS011;45749;51.140;17.184;2023-08-24T02:37:00;7.47;;;4.80;;
59876;SDS011;45749;51.140;17.184;2023-08-24T02:39:26;9.13;;;4.35;;
59876;SDS011;45749;51.140;17.184;2023-08-24T02:41:51;7.47;;;4.07;;
59876;SDS011;45749;51.140;17.184;2023-08-24T02:44:17;5.90;;;4.10;;
59876;SDS011;45749;51.140;17.184;2023-08-24T02:46:45;9.10;;;4.38;;
59876;SDS011;45749;51.140;17.184;2023-08-24T02:49:10;7.35;;;3.95;;
59876;SDS011;45749;51.140;17.184;2023-08-24T02:51:36;5.50;;;3.92;;
59876;SDS011;45749;51.140;17.184;2023-08-24T02:54:01;9.60;;;3.33;;
59876;SDS011;45749;51.140;17.184;2023-08-24T02:56:27;5.28;;;3.33;;
59876;SDS011;45749;51.140;17.184;2023-08-24T02:58:52;5.60;;;4.03;;
59876;SDS011;45749;51.140;17.184;2023-08-24T03:01:17;6.97;;;3.80;;
59876;SDS011;45749;51.140;17.184;2023-08-24T03:03:43;5.05;;;3.15;;
59876;SDS011;45749;51.140;17.184;2023-08-24T03:06:08;5.30;;;4.28;;
59876;SDS011;45749;51.140;17.184;2023-08-24T03:08:34;7.30;;;3.13;;
59876;SDS011;45749;51.140;17.184;2023-08-24T03:11:01;6.80;;;3.97;;
59876;SDS011;45749;51.140;17.184;2023-08-24T03:13:27;7.22;;;3.47;;
59876;SDS011;45749;51.140;17.184;2023-08-24T03:15:53;5.13;;;3.10;;
59876;SDS011;45749;51.140;17.184;2023-08-24T03:18:18;6.22;;;3.05;;
59876;SDS011;45749;51.140;17.184;2023-08-24T03:20:45;7.47;;;4.45;;
59876;SDS011;45749;51.140;17.184;2023-08-24T03:23:11;7.55;;;4.47;;
59876;SDS011;45749;51.140;17.184;2023-08-24T03:25:38;7.50;;;4.53;;
59876;SDS011;45749;51.140;17.184;2023-08-24T03:28:05;7.38;;;4.57;;
59876;SDS011;45749;51.140;17.184;2023-08-24T03:30:35;10.27;;;4.50;;
59876;SDS011;45749;51.140;17.184;2023-08-24T03:33:01;7.43;;;4.82;;
59876;SDS011;45749;51.140;17.184;2023-08-24T03:35:28;7.88;;;4.22;;
59876;SDS011;45749;51.140;17.184;2023-08-24T03:37:54;8.43;;;5.00;;
59876;SDS011;45749;51.140;17.184;2023-08-24T03:40:20;5.75;;;4.28;;
59876;SDS011;45749;51.140;17.184;2023-08-24T03:42:45;8.50;;;4.40;;
59876;SDS011;45749;51.140;17.184;2023-08-24T03:45:10;9.30;;;4.90;;
59876;SDS011;45749;51.140;17.184;2023-08-24T03:47:36;5.27;;;3.93;;
59876;SDS011;45749;51.140;17.184;2023-08-24T03:50:01;6.70;;;4.27;;
59876;SDS011;45749;51.140;17.184;2023-08-24T03:52:26;8.05;;;4.68;;
59876;SDS011;45749;51.140;17.184;2023-08-24T03:54:52;7.05;;;4.35;;
59876;SDS011;45749;51.140;17.184;2023-08-24T03:57:17;4.70;;;4.13;;
59876;SDS011;45749;51.140;17.184;2023-08-24T03:59:42;5.18;;;3.45;;
59876;SDS011;45749;51.140;17.184;2023-08-24T04:02:07;6.43;;;4.65;;
59876;SDS011;45749;51.140;17.184;2023-08-24T04:04:33;5.95;;;3.30;;
59876;SDS011;45749;51.140;17.184;2023-08-24T04:06:58;9.05;;;4.25;;
59876;SDS011;45749;51.140;17.184;2023-08-24T04:09:25;7.30;;;4.47;;
59876;SDS011;45749;51.140;17.184;2023-08-24T04:11:50;10.02;;;4.50;;
59876;SDS011;45749;51.140;17.184;2023-08-24T04:14:15;5.57;;;3.83;;
59876;SDS011;45749;51.140;17.184;2023-08-24T04:16:41;8.60;;;4.43;;
59876;SDS011;45749;51.140;17.184;2023-08-24T04:19:07;4.82;;;3.80;;
59876;SDS011;45749;51.140;17.184;2023-08-24T04:21:33;7.00;;;4.07;;
59876;SDS011;45749;51.140;17.184;2023-08-24T04:23:58;5.65;;;3.38;;
59876;SDS011;45749;51.140;17.184;2023-08-24T04:26:24;9.77;;;4.35;;
59876;SDS011;45749;51.140;17.184;2023-08-24T04:28:49;6.82;;;4.38;;
59876;SDS011;45749;51.140;17.184;2023-08-24T04:31:15;5.32;;;3.85;;
59876;SDS011;45749;51.140;17.184;2023-08-24T04:33:40;6.32;;;3.70;;
59876;SDS011;45749;51.140;17.184;2023-08-24T04:36:06;7.78;;;4.57;;
59876;SDS011;45749;51.140;17.184;2023-08-24T04:38:31;6.05;;;4.45;;
59876;SDS011;45749;51.140;17.184;2023-08-24T04:40:56;10.18;;;5.60;;
59876;SDS011;45749;51.140;17.184;2023-08-24T04:43:22;8.88;;;5.30;;
59876;SDS011;45749;51.140;17.184;2023-08-24T04:45:49;7.55;;;4.95;;
59876;SDS011;45749;51.140;17.184;2023-08-24T04:48:22;8.77;;;5.55;;
59876;SDS011;45749;51.140;17.184;2023-08-24T04:50:48;10.30;;;5.07;;
59876;SDS011;45749;51.140;17.184;2023-08-24T04:53:14;10.70;;;5.20;;
59876;SDS011;45749;51.140;17.184;2023-08-24T04:55:41;9.27;;;5.63;;
59876;SDS011;45749;51.140;17.184;2023-08-24T04:58:08;9.60;;;5.18;;
59876;SDS011;45749;51.140;17.184;2023-08-24T05:00:34;8.50;;;4.80;;
59876;SDS011;45749;51.140;17.184;2023-08-24T05:03:00;8.32;;;5.47;;
59876;SDS011;45749;51.140;17.184;2023-08-24T05:05:26;11.32;;;4.85;;
59876;SDS011;45749;51.140;17.184;2023-08-24T05:07:51;8.38;;;6.20;;
59876;SDS011;45749;51.140;17.184;2023-08-24T05:10:19;7.75;;;4.97;;
59876;SDS011;45749;51.140;17.184;2023-08-24T05:12:45;8.75;;;5.32;;
59876;SDS011;45749;51.140;17.184;2023-08-24T05:15:10;8.37;;;5.57;;
59876;SDS011;45749;51.140;17.184;2023-08-24T05:17:35;8.07;;;5.93;;
59876;SDS011;45749;51.140;17.184;2023-08-24T05:20:00;8.93;;;6.00;;
59876;SDS011;45749;51.140;17.184;2023-08-24T05:22:26;7.57;;;5.18;;
59876;SDS011;45749;51.140;17.184;2023-08-24T05:24:51;10.70;;;6.67;;
59876;SDS011;45749;51.140;17.184;2023-08-24T05:27:16;8.02;;;5.63;;
59876;SDS011;45749;51.140;17.184;2023-08-24T05:29:42;7.55;;;5.43;;
59876;SDS011;45749;51.140;17.184;2023-08-24T05:32:08;11.52;;;5.93;;
59876;SDS011;45749;51.140;17.184;2023-08-24T05:34:33;11.85;;;5.55;;
59876;SDS011;45749;51.140;17.184;2023-08-24T05:36:58;8.80;;;5.88;;
59876;SDS011;45749;51.140;17.184;2023-08-24T05:39:24;9.38;;;6.72;;
59876;SDS011;45749;51.140;17.184;2023-08-24T05:41:50;9.32;;;5.50;;
59876;SDS011;45749;51.140;17.184;2023-08-24T05:44:17;10.45;;;5.97;;
59876;SDS011;45749;51.140;17.184;2023-08-24T05:46:42;7.93;;;5.72;;
59876;SDS011;45749;51.140;17.184;2023-08-24T05:49:08;9.18;;;6.00;;
59876;SDS011;45749;51.140;17.184;2023-08-24T05:51:34;10.32;;;5.82;;
59876;SDS011;45749;51.140;17.184;2023-08-24T05:53:59;6.78;;;4.88;;
59876;SDS011;45749;51.140;17.184;2023-08-24T05:56:25;11.02;;;7.47;;
59876;SDS011;45749;51.140;17.184;2023-08-24T05:58:50;8.38;;;4.97;;
59876;SDS011;45749;51.140;17.184;2023-08-24T06:01:16;5.82;;;4.50;;
59876;SDS011;45749;51.140;17.184;2023-08-24T06:03:41;7.40;;;4.72;;
59876;SDS011;45749;51.140;17.184;2023-08-24T06:06:07;7.57;;;5.65;;
59876;SDS011;45749;51.140;17.184;2023-08-24T06:08:34;9.98;;;6.78;;
59876;SDS011;45749;51.140;17.184;2023-08-24T06:10:59;8.15;;;5.70;;
59876;SDS011;45749;51.140;17.184;2023-08-24T06:13:25;6.47;;;4.60;;
59876;SDS011;45749;51.140;17.184;2023-08-24T06:15:51;9.38;;;5.82;;
59876;SDS011;45749;51.140;17.184;2023-08-24T06:18:16;9.95;;;4.72;;
59876;SDS011;45749;51.140;17.184;2023-08-24T06:20:41;9.95;;;5.20;;
59876;SDS011;45749;51.140;17.184;2023-08-24T06:23:07;8.40;;;4.95;;
59876;SDS011;45749;51.140;17.184;2023-08-24T06:25:32;9.85;;;5.88;;
59876;SDS011;45749;51.140;17.184;2023-08-24T06:27:58;7.07;;;5.03;;
59876;SDS011;45749;51.140;17.184;2023-08-24T06:30:24;7.65;;;4.60;;
59876;SDS011;45749;51.140;17.184;2023-08-24T06:32:52;7.22;;;4.63;;
59876;SDS011;45749;51.140;17.184;2023-08-24T06:35:17;7.60;;;4.50;;
59876;SDS011;45749;51.140;17.184;2023-08-24T06:37:43;6.68;;;4.40;;
59876;SDS011;45749;51.140;17.184;2023-08-24T06:40:09;9.35;;;4.43;;
59876;SDS011;45749;51.140;17.184;2023-08-24T06:42:34;9.18;;;4.07;;
59876;SDS011;45749;51.140;17.184;2023-08-24T06:45:00;6.10;;;4.68;;
59876;SDS011;45749;51.140;17.184;2023-08-24T06:47:25;7.15;;;4.32;;
59876;SDS011;45749;51.140;17.184;2023-08-24T06:49:50;10.00;;;4.50;;
59876;SDS011;45749;51.140;17.184;2023-08-24T06:52:16;7.60;;;4.30;;
59876;SDS011;45749;51.140;17.184;2023-08-24T06:54:41;5.82;;;4.13;;
59876;SDS011;45749;51.140;17.184;2023-08-24T06:57:06;10.40;;;6.07;;
59876;SDS011;45749;51.140;17.184;2023-08-24T06:59:32;5.65;;;3.80;;
59876;SDS011;45749;51.140;17.184;2023-08-24T07:01:57;5.00;;;3.88;;
59876;SDS011;45749;51.140;17.184;2023-08-24T07:04:23;7.03;;;3.90;;
59876;SDS011;45749;51.140;17.184;2023-08-24T07:06:48;5.18;;;4.03;;
59876;SDS011;45749;51.140;17.184;2023-08-24T07:09:14;6.40;;;4.88;;
59876;SDS011;45749;51.140;17.184;2023-08-24T07:11:40;7.13;;;5.10;;
59876;SDS011;45749;51.140;17.184;2023-08-24T07:14:05;5.72;;;3.95;;
59876;SDS011;45749;51.140;17.184;2023-08-24T07:16:31;8.43;;;4.50;;
59876;SDS011;45749;51.140;17.184;2023-08-24T07:18:56;6.63;;;4.15;;
59876;SDS011;45749;51.140;17.184;2023-08-24T07:21:22;7.55;;;3.75;;
59876;SDS011;45749;51.140;17.184;2023-08-24T07:23:47;5.37;;;3.20;;
59876;SDS011;45749;51.140;17.184;2023-08-24T07:26:12;9.02;;;3.90;;
59876;SDS011;45749;51.140;17.184;2023-08-24T07:28:38;4.57;;;3.53;;
59876;SDS011;45749;51.140;17.184;2023-08-24T07:31:09;3.63;;;3.13;;
59876;SDS011;45749;51.140;17.184;2023-08-24T07:33:35;4.82;;;3.45;;
59876;SDS011;45749;51.140;17.184;2023-08-24T07:36:03;4.35;;;3.10;;
59876;SDS011;45749;51.140;17.184;2023-08-24T07:38:29;5.82;;;3.60;;
59876;SDS011;45749;51.140;17.184;2023-08-24T07:40:54;7.00;;;3.95;;
59876;SDS011;45749;51.140;17.184;2023-08-24T07:43:20;3.78;;;2.80;;
59876;SDS011;45749;51.140;17.184;2023-08-24T07:45:45;5.05;;;2.83;;
59876;SDS011;45749;51.140;17.184;2023-08-24T07:48:10;5.97;;;3.15;;
59876;SDS011;45749;51.140;17.184;2023-08-24T07:50:35;4.90;;;3.03;;
59876;SDS011;45749;51.140;17.184;2023-08-24T07:53:01;4.35;;;3.10;;
59876;SDS011;45749;51.140;17.184;2023-08-24T07:55:26;5.80;;;3.33;;
59876;SDS011;45749;51.140;17.184;2023-08-24T07:57:51;6.07;;;3.23;;
59876;SDS011;45749;51.140;17.184;2023-08-24T08:00:17;5.53;;;3.67;;
59876;SDS011;45749;51.140;17.184;2023-08-24T08:02:42;7.47;;;3.55;;
59876;SDS011;45749;51.140;17.184;2023-08-24T08:05:07;6.43;;;3.08;;
59876;SDS011;45749;51.140;17.184;2023-08-24T08:07:35;5.43;;;2.90;;
59876;SDS011;45749;51.140;17.184;2023-08-24T08:10:00;3.70;;;2.63;;
59876;SDS011;45749;51.140;17.184;2023-08-24T08:12:26;7.30;;;3.15;;
59876;SDS011;45749;51.140;17.184;2023-08-24T08:14:51;5.47;;;3.13;;
59876;SDS011;45749;51.140;17.184;2023-08-24T08:17:16;4.70;;;3.00;;
59876;SDS011;45749;51.140;17.184;2023-08-24T08:19:41;3.65;;;2.20;;
59876;SDS011;45749;51.140;17.184;2023-08-24T08:22:07;5.15;;;2.55;;
59876;SDS011;45749;51.140;17.184;2023-08-24T08:24:33;5.82;;;2.55;;
59876;SDS011;45749;51.140;17.184;2023-08-24T08:26:58;4.38;;;2.63;;
59876;SDS011;45749;51.140;17.184;2023-08-24T08:29:24;5.05;;;2.50;;
59876;SDS011;45749;51.140;17.184;2023-08-24T08:31:49;3.25;;;2.13;;
59876;SDS011;45749;51.140;17.184;2023-08-24T08:34:14;5.47;;;2.88;;
59876;SDS011;45749;51.140;17.184;2023-08-24T08:36:40;3.42;;;2.45;;
59876;SDS011;45749;51.140;17.184;2023-08-24T08:39:06;4.95;;;3.03;;
59876;SDS011;45749;51.140;17.184;2023-08-24T08:41:33;5.15;;;3.47;;
59876;SDS011;45749;51.140;17.184;2023-08-24T08:44:06;3.50;;;2.25;;
59876;SDS011;45749;51.140;17.184;2023-08-24T08:46:34;5.95;;;2.67;;
59876;SDS011;45749;51.140;17.184;2023-08-24T08:49:00;4.18;;;2.55;;
59876;SDS011;45749;51.140;17.184;2023-08-24T08:51:25;5.55;;;2.15;;
59876;SDS011;45749;51.140;17.184;2023-08-24T08:53:52;5.38;;;2.30;;
59876;SDS011;45749;51.140;17.184;2023-08-24T08:56:17;3.17;;;2.10;;
59876;SDS011;45749;51.140;17.184;2023-08-24T08:58:42;3.45;;;2.10;;
59876;SDS011;45749;51.140;17.184;2023-08-24T09:01:09;4.93;;;2.10;;
59876;SDS011;45749;51.140;17.184;2023-08-24T09:03:34;5.30;;;2.60;;
59876;SDS011;45749;51.140;17.184;2023-08-24T09:06:00;5.45;;;2.50;;
59876;SDS011;45749;51.140;17.184;2023-08-24T09:08:26;5.63;;;2.53;;
59876;SDS011;45749;51.140;17.184;2023-08-24T09:10:53;4.22;;;2.40;;
59876;SDS011;45749;51.140;17.184;2023-08-24T09:13:19;4.90;;;2.65;;
59876;SDS011;45749;51.140;17.184;2023-08-24T09:15:44;2.55;;;1.55;;
59876;SDS011;45749;51.140;17.184;2023-08-24T09:18:09;3.28;;;1.70;;
59876;SDS011;45749;51.140;17.184;2023-08-24T09:20:35;3.75;;;1.95;;
59876;SDS011;45749;51.140;17.184;2023-08-24T09:23:00;4.10;;;2.08;;
59876;SDS011;45749;51.140;17.184;2023-08-24T09:25:26;5.53;;;1.70;;
59876;SDS011;45749;51.140;17.184;2023-08-24T09:27:58;3.90;;;2.13;;
59876;SDS011;45749;51.140;17.184;2023-08-24T09:30:28;4.22;;;2.33;;
59876;SDS011;45749;51.140;17.184;2023-08-24T09:33:03;4.45;;;2.30;;
59876;SDS011;45749;51.140;17.184;2023-08-24T09:35:33;5.78;;;2.00;;
59876;SDS011;45749;51.140;17.184;2023-08-24T09:38:00;3.33;;;1.83;;
59876;SDS011;45749;51.140;17.184;2023-08-24T09:40:25;3.70;;;2.38;;
59876;SDS011;45749;51.140;17.184;2023-08-24T09:42:51;2.45;;;2.00;;
59876;SDS011;45749;51.140;17.184;2023-08-24T09:45:16;5.00;;;2.17;;
59876;SDS011;45749;51.140;17.184;2023-08-24T09:47:45;4.40;;;1.98;;
59876;SDS011;45749;51.140;17.184;2023-08-24T09:50:14;6.13;;;2.30;;
59876;SDS011;45749;51.140;17.184;2023-08-24T09:52:40;4.85;;;2.60;;
59876;SDS011;45749;51.140;17.184;2023-08-24T09:55:07;2.95;;;2.00;;
59876;SDS011;45749;51.140;17.184;2023-08-24T09:57:36;4.00;;;2.10;;
59876;SDS011;45749;51.140;17.184;2023-08-24T10:00:04;5.85;;;2.22;;
59876;SDS011;45749;51.140;17.184;2023-08-24T10:02:35;2.78;;;2.05;;
59876;SDS011;45749;51.140;17.184;2023-08-24T10:05:02;3.15;;;2.45;;
59876;SDS011;45749;51.140;17.184;2023-08-24T10:07:29;3.22;;;2.00;;
59876;SDS011;45749;51.140;17.184;2023-08-24T10:10:01;3.90;;;2.17;;
59876;SDS011;45749;51.140;17.184;2023-08-24T10:12:28;4.50;;;1.70;;
59876;SDS011;45749;51.140;17.184;2023-08-24T10:14:59;2.97;;;2.08;;
59876;SDS011;45749;51.140;17.184;2023-08-24T10:17:29;2.63;;;2.00;;
59876;SDS011;45749;51.140;17.184;2023-08-24T10:19:58;3.33;;;2.05;;
59876;SDS011;45749;51.140;17.184;2023-08-24T10:24:55;3.47;;;1.95;;
59876;SDS011;45749;51.140;17.184;2023-08-24T10:27:22;3.90;;;2.58;;
59876;SDS011;45749;51.140;17.184;2023-08-24T10:29:49;3.00;;;1.80;;
59876;SDS011;45749;51.140;17.184;2023-08-24T10:32:14;3.33;;;1.77;;
59876;SDS011;45749;51.140;17.184;2023-08-24T10:34:41;3.50;;;2.40;;
59876;SDS011;45749;51.140;17.184;2023-08-24T10:37:09;2.33;;;1.80;;
59876;SDS011;45749;51.140;17.184;2023-08-24T10:39:35;3.58;;;2.47;;
59876;SDS011;45749;51.140;17.184;2023-08-24T10:42:03;2.65;;;2.00;;
59876;SDS011;45749;51.140;17.184;2023-08-24T10:44:34;3.03;;;2.10;;
59876;SDS011;45749;51.140;17.184;2023-08-24T10:47:09;4.97;;;1.98;;
59876;SDS011;45749;51.140;17.184;2023-08-24T10:49:37;3.55;;;2.00;;
59876;SDS011;45749;51.140;17.184;2023-08-24T10:54:53;7.63;;;4.53;;
59876;SDS011;45749;51.140;17.184;2023-08-24T10:59:58;5.50;;;2.22;;
59876;SDS011;45749;51.140;17.184;2023-08-24T11:02:24;4.57;;;2.47;;
59876;SDS011;45749;51.140;17.184;2023-08-24T11:08:04;3.55;;;2.05;;
59876;SDS011;45749;51.140;17.184;2023-08-24T11:10:32;4.38;;;1.80;;
59876;SDS011;45749;51.140;17.184;2023-08-24T11:13:09;6.32;;;1.92;;
59876;SDS011;45749;51.140;17.184;2023-08-24T11:18:14;3.38;;;2.00;;
59876;SDS011;45749;51.140;17.184;2023-08-24T11:20:44;6.78;;;2.22;;
59876;SDS011;45749;51.140;17.184;2023-08-24T11:23:09;11.32;;;2.15;;
59876;SDS011;45749;51.140;17.184;2023-08-24T11:25:35;4.45;;;2.20;;
59876;SDS011;45749;51.140;17.184;2023-08-24T11:28:01;3.28;;;2.20;;
59876;SDS011;45749;51.140;17.184;2023-08-24T11:30:29;2.75;;;1.83;;
59876;SDS011;45749;51.140;17.184;2023-08-24T11:32:55;1.98;;;1.75;;
59876;SDS011;45749;51.140;17.184;2023-08-24T11:35:20;3.25;;;2.30;;
59876;SDS011;45749;51.140;17.184;2023-08-24T11:37:51;3.28;;;1.83;;
59876;SDS011;45749;51.140;17.184;2023-08-24T11:40:17;4.15;;;2.78;;
59876;SDS011;45749;51.140;17.184;2023-08-24T11:42:44;6.22;;;2.70;;
59876;SDS011;45749;51.140;17.184;2023-08-24T11:45:12;3.22;;;1.92;;
59876;SDS011;45749;51.140;17.184;2023-08-24T11:47:38;4.25;;;1.88;;
59876;SDS011;45749;51.140;17.184;2023-08-24T11:50:03;6.05;;;2.60;;
59876;SDS011;45749;51.140;17.184;2023-08-24T11:52:29;3.22;;;2.15;;
59876;SDS011;45749;51.140;17.184;2023-08-24T11:54:58;4.88;;;2.50;;
59876;SDS011;45749;51.140;17.184;2023-08-24T11:57:23;3.67;;;1.77;;
59876;SDS011;45749;51.140;17.184;2023-08-24T11:59:51;3.17;;;1.65;;
59876;SDS011;45749;51.140;17.184;2023-08-24T12:02:16;4.30;;;1.75;;
59876;SDS011;45749;51.140;17.184;2023-08-24T12:04:43;4.00;;;2.10;;
59876;SDS011;45749;51.140;17.184;2023-08-24T12:07:11;5.22;;;2.08;;
59876;SDS011;45749;51.140;17.184;2023-08-24T12:09:38;5.10;;;2.00;;
59876;SDS011;45749;51.140;17.184;2023-08-24T12:12:05;4.78;;;1.67;;
59876;SDS011;45749;51.140;17.184;2023-08-24T12:14:40;3.30;;;2.10;;
59876;SDS011;45749;51.140;17.184;2023-08-24T12:17:06;5.43;;;2.80;;
59876;SDS011;45749;51.140;17.184;2023-08-24T12:19:32;5.60;;;2.03;;
59876;SDS011;45749;51.140;17.184;2023-08-24T12:21:58;3.00;;;2.13;;
59876;SDS011;45749;51.140;17.184;2023-08-24T12:24:23;5.50;;;2.00;;
59876;SDS011;45749;51.140;17.184;2023-08-24T12:26:54;3.90;;;1.73;;
59876;SDS011;45749;51.140;17.184;2023-08-24T12:29:20;3.30;;;1.77;;
59876;SDS011;45749;51.140;17.184;2023-08-24T12:31:46;3.40;;;1.80;;
59876;SDS011;45749;51.140;17.184;2023-08-24T12:34:13;5.53;;;2.10;;
59876;SDS011;45749;51.140;17.184;2023-08-24T12:36:41;4.50;;;1.80;;
59876;SDS011;45749;51.140;17.184;2023-08-24T12:39:08;6.55;;;2.08;;
59876;SDS011;45749;51.140;17.184;2023-08-24T12:41:35;3.00;;;1.90;;
59876;SDS011;45749;51.140;17.184;2023-08-24T12:44:00;6.18;;;2.13;;
59876;SDS011;45749;51.140;17.184;2023-08-24T12:46:30;6.18;;;2.38;;
59876;SDS011;45749;51.140;17.184;2023-08-24T12:48:55;5.10;;;1.95;;
59876;SDS011;45749;51.140;17.184;2023-08-24T12:51:21;11.02;;;2.65;;
59876;SDS011;45749;51.140;17.184;2023-08-24T12:53:46;4.28;;;1.90;;
59876;SDS011;45749;51.140;17.184;2023-08-24T12:56:12;3.83;;;1.90;;
59876;SDS011;45749;51.140;17.184;2023-08-24T12:58:37;7.10;;;2.03;;
59876;SDS011;45749;51.140;17.184;2023-08-24T13:01:02;4.65;;;2.03;;
59876;SDS011;45749;51.140;17.184;2023-08-24T13:03:28;5.17;;;1.87;;
59876;SDS011;45749;51.140;17.184;2023-08-24T13:05:53;4.63;;;2.10;;
59876;SDS011;45749;51.140;17.184;2023-08-24T13:08:18;3.77;;;2.23;;
59876;SDS011;45749;51.140;17.184;2023-08-24T13:10:44;3.80;;;1.60;;
59876;SDS011;45749;51.140;17.184;2023-08-24T13:13:09;4.32;;;2.15;;
59876;SDS011;45749;51.140;17.184;2023-08-24T13:15:34;8.68;;;2.22;;
59876;SDS011;45749;51.140;17.184;2023-08-24T13:17:59;5.13;;;2.10;;
59876;SDS011;45749;51.140;17.184;2023-08-24T13:20:25;2.60;;;1.70;;
59876;SDS011;45749;51.140;17.184;2023-08-24T13:22:50;5.50;;;2.53;;
59876;SDS011;45749;51.140;17.184;2023-08-24T13:25:16;4.78;;;1.65;;
59876;SDS011;45749;51.140;17.184;2023-08-24T13:27:42;3.97;;;2.00;;
59876;SDS011;45749;51.140;17.184;2023-08-24T13:30:07;5.40;;;2.03;;
59876;SDS011;45749;51.140;17.184;2023-08-24T13:32:33;2.60;;;2.22;;
59876;SDS011;45749;51.140;17.184;2023-08-24T13:34:59;3.10;;;2.22;;
59876;SDS011;45749;51.140;17.184;2023-08-24T13:37:25;3.40;;;1.70;;
59876;SDS011;45749;51.140;17.184;2023-08-24T13:39:50;4.53;;;1.70;;
59876;SDS011;45749;51.140;17.184;2023-08-24T13:42:16;3.58;;;2.10;;
59876;SDS011;45749;51.140;17.184;2023-08-24T13:44:41;7.05;;;2.00;;
59876;SDS011;45749;51.140;17.184;2023-08-24T13:47:07;2.40;;;1.90;;
59876;SDS011;45749;51.140;17.184;2023-08-24T13:49:32;3.15;;;1.70;;
59876;SDS011;45749;51.140;17.184;2023-08-24T13:51:57;2.53;;;1.70;;
59876;SDS011;45749;51.140;17.184;2023-08-24T13:54:23;4.37;;;1.87;;
59876;SDS011;45749;51.140;17.184;2023-08-24T13:56:50;2.63;;;1.70;;
59876;SDS011;45749;51.140;17.184;2023-08-24T13:59:16;5.93;;;2.38;;
59876;SDS011;45749;51.140;17.184;2023-08-24T14:01:41;2.45;;;2.25;;
59876;SDS011;45749;51.140;17.184;2023-08-24T14:04:07;1.67;;;1.52;;
59876;SDS011;45749;51.140;17.184;2023-08-24T14:06:33;5.03;;;2.20;;
59876;SDS011;45749;51.140;17.184;2023-08-24T14:08:59;3.60;;;2.33;;
59876;SDS011;45749;51.140;17.184;2023-08-24T14:11:25;2.97;;;1.88;;
59876;SDS011;45749;51.140;17.184;2023-08-24T14:13:51;2.88;;;2.13;;
59876;SDS011;45749;51.140;17.184;2023-08-24T14:16:19;2.35;;;1.70;;
59876;SDS011;45749;51.140;17.184;2023-08-24T14:18:45;2.70;;;1.70;;
59876;SDS011;45749;51.140;17.184;2023-08-24T14:21:11;3.72;;;1.95;;
59876;SDS011;45749;51.140;17.184;2023-08-24T14:23:36;3.92;;;2.10;;
59876;SDS011;45749;51.140;17.184;2023-08-24T14:26:02;5.10;;;2.03;;
59876;SDS011;45749;51.140;17.184;2023-08-24T14:28:46;4.63;;;1.77;;
59876;SDS011;45749;51.140;17.184;2023-08-24T14:31:22;3.40;;;2.15;;
59876;SDS011;45749;51.140;17.184;2023-08-24T14:33:52;2.53;;;1.80;;
59876;SDS011;45749;51.140;17.184;2023-08-24T14:36:18;3.47;;;1.90;;
59876;SDS011;45749;51.140;17.184;2023-08-24T14:38:46;4.18;;;1.90;;
59876;SDS011;45749;51.140;17.184;2023-08-24T14:41:13;2.95;;;2.20;;
59876;SDS011;45749;51.140;17.184;2023-08-24T14:43:39;3.72;;;2.10;;